sensor_id;sensor_type;location;lat;lon;timestamp;P1;P2;P0
37757;PMS7003;23599;50.304;18.928;2022-09-09T00:00:13;10;10;9
37757;PMS7003;23599;50.304;18.928;2022-09-09T00:00:34;10;10;8
37757;PMS7003;23599;50.304;18.928;2022-09-09T00:02:30;11;11;9
37757;PMS7003;23599;50.304;18.928;2022-09-09T00:02:35;10;10;10
37757;PMS7003;23599;50.304;18.928;2022-09-09T00:02:37;10;10;10
37757;PMS7003;23599;50.304;18.928;2022-09-09T00:02:55;12;12;10
37757;PMS7003;23599;50.304;18.928;2022-09-09T00:03:21;10;10;9
37757;PMS7003;23599;50.304;18.928;2022-09-09T00:03:43;13;13;10
37757;PMS7003;23599;50.304;18.928;2022-09-09T00:04:15;9;9;8
37757;PMS7003;23599;50.304;18.928;2022-09-09T00:04:28;10;10;9
37757;PMS7003;23599;50.304;18.928;2022-09-09T00:04:42;12;10;9
37757;PMS7003;23599;50.304;18.928;2022-09-09T00:06:10;12;12;10
37757;PMS7003;23599;50.304;18.928;2022-09-09T00:06:16;11;11;10
37757;PMS7003;23599;50.304;18.928;2022-09-09T00:06:33;10;10;9
37757;PMS7003;23599;50.304;18.928;2022-09-09T00:07:47;12;12;10
37757;PMS7003;23599;50.304;18.928;2022-09-09T00:08:03;12;12;11
37757;PMS7003;23599;50.304;18.928;2022-09-09T00:08:19;13;13;10
37757;PMS7003;23599;50.304;18.928;2022-09-09T00:09:27;12;12;10
37757;PMS7003;23599;50.304;18.928;2022-09-09T00:09:31;12;12;10
37757;PMS7003;23599;50.304;18.928;2022-09-09T00:10:56;12;12;11
37757;PMS7003;23599;50.304;18.928;2022-09-09T00:11:12;11;11;10
37757;PMS7003;23599;50.304;18.928;2022-09-09T00:11:24;11;11;10
37757;PMS7003;23599;50.304;18.928;2022-09-09T00:11:45;13;12;10
37757;PMS7003;23599;50.304;18.928;2022-09-09T00:12:29;13;13;10
37757;PMS7003;23599;50.304;18.928;2022-09-09T00:13:34;14;14;12
37757;PMS7003;23599;50.304;18.928;2022-09-09T00:13:54;15;14;12
37757;PMS7003;23599;50.304;18.928;2022-09-09T00:14:13;15;14;13
37757;PMS7003;23599;50.304;18.928;2022-09-09T00:14:37;13;13;11
37757;PMS7003;23599;50.304;18.928;2022-09-09T00:15:17;14;14;13
37757;PMS7003;23599;50.304;18.928;2022-09-09T00:15:26;12;12;11
37757;PMS7003;23599;50.304;18.928;2022-09-09T00:15:50;16;15;12
37757;PMS7003;23599;50.304;18.928;2022-09-09T00:16:19;15;15;11
37757;PMS7003;23599;50.304;18.928;2022-09-09T00:16:24;15;15;11
37757;PMS7003;23599;50.304;18.928;2022-09-09T00:16:43;12;11;9
37757;PMS7003;23599;50.304;18.928;2022-09-09T00:17:04;12;12;10
37757;PMS7003;23599;50.304;18.928;2022-09-09T00:20:12;13;12;10
37757;PMS7003;23599;50.304;18.928;2022-09-09T00:20:36;13;13;11
37757;PMS7003;23599;50.304;18.928;2022-09-09T00:20:58;14;14;13
37757;PMS7003;23599;50.304;18.928;2022-09-09T00:21:19;13;13;13
37757;PMS7003;23599;50.304;18.928;2022-09-09T00:22:08;13;13;11
37757;PMS7003;23599;50.304;18.928;2022-09-09T00:22:29;11;11;9
37757;PMS7003;23599;50.304;18.928;2022-09-09T00:22:48;14;13;11
37757;PMS7003;23599;50.304;18.928;2022-09-09T00:23:27;16;15;13
37757;PMS7003;23599;50.304;18.928;2022-09-09T00:24:32;16;16;13
37757;PMS7003;23599;50.304;18.928;2022-09-09T00:24:37;16;16;14
37757;PMS7003;23599;50.304;18.928;2022-09-09T00:24:58;15;15;13
37757;PMS7003;23599;50.304;18.928;2022-09-09T00:26:04;15;14;12
37757;PMS7003;23599;50.304;18.928;2022-09-09T00:26:42;17;16;13
37757;PMS7003;23599;50.304;18.928;2022-09-09T00:27:06;18;18;13
37757;PMS7003;23599;50.304;18.928;2022-09-09T00:27:52;16;16;14
37757;PMS7003;23599;50.304;18.928;2022-09-09T00:28:25;18;18;15
37757;PMS7003;23599;50.304;18.928;2022-09-09T00:28:33;17;17;15
37757;PMS7003;23599;50.304;18.928;2022-09-09T00:28:55;18;18;14
37757;PMS7003;23599;50.304;18.928;2022-09-09T00:29:50;16;16;13
37757;PMS7003;23599;50.304;18.928;2022-09-09T00:29:58;15;15;13
37757;PMS7003;23599;50.304;18.928;2022-09-09T00:30:19;16;16;13
37757;PMS7003;23599;50.304;18.928;2022-09-09T00:30:35;16;16;13
37757;PMS7003;23599;50.304;18.928;2022-09-09T00:30:50;18;16;13
37757;PMS7003;23599;50.304;18.928;2022-09-09T00:31:27;16;16;13
37757;PMS7003;23599;50.304;18.928;2022-09-09T00:31:42;16;16;13
37757;PMS7003;23599;50.304;18.928;2022-09-09T00:31:55;16;16;13
37757;PMS7003;23599;50.304;18.928;2022-09-09T00:32:18;14;14;12
37757;PMS7003;23599;50.304;18.928;2022-09-09T00:32:32;17;17;14
37757;PMS7003;23599;50.304;18.928;2022-09-09T00:32:36;17;17;14
37757;PMS7003;23599;50.304;18.928;2022-09-09T00:32:52;17;16;13
37757;PMS7003;23599;50.304;18.928;2022-09-09T00:33:11;16;16;13
37757;PMS7003;23599;50.304;18.928;2022-09-09T00:33:27;16;16;13
37757;PMS7003;23599;50.304;18.928;2022-09-09T00:33:43;18;18;13
37757;PMS7003;23599;50.304;18.928;2022-09-09T00:34:23;17;17;14
37757;PMS7003;23599;50.304;18.928;2022-09-09T00:34:39;23;18;14
37757;PMS7003;23599;50.304;18.928;2022-09-09T00:35:02;17;16;13
37757;PMS7003;23599;50.304;18.928;2022-09-09T00:35:24;16;16;13
37757;PMS7003;23599;50.304;18.928;2022-09-09T00:35:58;16;16;13
37757;PMS7003;23599;50.304;18.928;2022-09-09T00:36:13;16;15;13
37757;PMS7003;23599;50.304;18.928;2022-09-09T00:36:30;17;16;14
37757;PMS7003;23599;50.304;18.928;2022-09-09T00:36:47;16;16;13
37757;PMS7003;23599;50.304;18.928;2022-09-09T00:37:03;15;15;12
37757;PMS7003;23599;50.304;18.928;2022-09-09T00:37:19;18;15;13
37757;PMS7003;23599;50.304;18.928;2022-09-09T00:37:33;14;14;11
37757;PMS7003;23599;50.304;18.928;2022-09-09T00:37:48;14;14;11
37757;PMS7003;23599;50.304;18.928;2022-09-09T00:38:28;15;15;13
37757;PMS7003;23599;50.304;18.928;2022-09-09T00:38:47;14;14;12
37757;PMS7003;23599;50.304;18.928;2022-09-09T00:39:05;16;16;13
37757;PMS7003;23599;50.304;18.928;2022-09-09T00:39:59;14;13;12
37757;PMS7003;23599;50.304;18.928;2022-09-09T00:40:26;16;14;12
37757;PMS7003;23599;50.304;18.928;2022-09-09T00:40:39;16;14;12
37757;PMS7003;23599;50.304;18.928;2022-09-09T00:42:24;17;17;13
37757;PMS7003;23599;50.304;18.928;2022-09-09T00:42:39;17;17;13
37757;PMS7003;23599;50.304;18.928;2022-09-09T00:42:58;15;15;12
37757;PMS7003;23599;50.304;18.928;2022-09-09T00:43:31;17;17;14
37757;PMS7003;23599;50.304;18.928;2022-09-09T00:44:31;16;16;13
37757;PMS7003;23599;50.304;18.928;2022-09-09T00:45:15;16;16;12
37757;PMS7003;23599;50.304;18.928;2022-09-09T00:47:24;18;18;15
37757;PMS7003;23599;50.304;18.928;2022-09-09T00:47:39;17;17;14
37757;PMS7003;23599;50.304;18.928;2022-09-09T00:47:57;19;19;14
37757;PMS7003;23599;50.304;18.928;2022-09-09T00:48:22;18;17;14
37757;PMS7003;23599;50.304;18.928;2022-09-09T00:49:20;18;18;14
37757;PMS7003;23599;50.304;18.928;2022-09-09T00:51:22;22;20;15
37757;PMS7003;23599;50.304;18.928;2022-09-09T00:52:22;17;17;14
37757;PMS7003;23599;50.304;18.928;2022-09-09T00:55:33;19;19;15
37757;PMS7003;23599;50.304;18.928;2022-09-09T00:56:16;20;19;15
37757;PMS7003;23599;50.304;18.928;2022-09-09T00:56:37;19;19;14
37757;PMS7003;23599;50.304;18.928;2022-09-09T00:56:51;19;19;14
37757;PMS7003;23599;50.304;18.928;2022-09-09T00:57:36;20;19;14
37757;PMS7003;23599;50.304;18.928;2022-09-09T00:57:41;20;19;14
37757;PMS7003;23599;50.304;18.928;2022-09-09T00:57:55;18;17;13
37757;PMS7003;23599;50.304;18.928;2022-09-09T00:58:10;22;21;16
37757;PMS7003;23599;50.304;18.928;2022-09-09T00:58:25;22;21;17
37757;PMS7003;23599;50.304;18.928;2022-09-09T00:58:43;24;22;16
37757;PMS7003;23599;50.304;18.928;2022-09-09T00:59:18;20;19;14
37757;PMS7003;23599;50.304;18.928;2022-09-09T01:00:35;25;22;15
37757;PMS7003;23599;50.304;18.928;2022-09-09T01:00:59;23;21;16
37757;PMS7003;23599;50.304;18.928;2022-09-09T01:01:20;22;22;16
37757;PMS7003;23599;50.304;18.928;2022-09-09T01:01:33;25;22;16
37757;PMS7003;23599;50.304;18.928;2022-09-09T01:01:47;21;20;15
37757;PMS7003;23599;50.304;18.928;2022-09-09T01:02:01;22;21;16
37757;PMS7003;23599;50.304;18.928;2022-09-09T01:03:54;24;23;17
37757;PMS7003;23599;50.304;18.928;2022-09-09T01:04:13;25;23;16
37757;PMS7003;23599;50.304;18.928;2022-09-09T01:04:34;23;22;15
37757;PMS7003;23599;50.304;18.928;2022-09-09T01:04:49;23;21;16
37757;PMS7003;23599;50.304;18.928;2022-09-09T01:05:34;22;21;15
37757;PMS7003;23599;50.304;18.928;2022-09-09T01:06:44;22;22;16
37757;PMS7003;23599;50.304;18.928;2022-09-09T01:07:12;21;20;16
37757;PMS7003;23599;50.304;18.928;2022-09-09T01:07:20;21;20;16
37757;PMS7003;23599;50.304;18.928;2022-09-09T01:07:33;19;19;15
37757;PMS7003;23599;50.304;18.928;2022-09-09T01:07:47;26;21;16
37757;PMS7003;23599;50.304;18.928;2022-09-09T01:08:02;27;24;17
37757;PMS7003;23599;50.304;18.928;2022-09-09T01:09:21;23;22;16
37757;PMS7003;23599;50.304;18.928;2022-09-09T01:10:07;22;21;15
37757;PMS7003;23599;50.304;18.928;2022-09-09T01:11:02;20;20;15
37757;PMS7003;23599;50.304;18.928;2022-09-09T01:11:20;22;21;16
37757;PMS7003;23599;50.304;18.928;2022-09-09T01:12:53;22;21;15
37757;PMS7003;23599;50.304;18.928;2022-09-09T01:13:13;24;22;16
37757;PMS7003;23599;50.304;18.928;2022-09-09T01:13:33;22;21;15
37757;PMS7003;23599;50.304;18.928;2022-09-09T01:13:49;26;24;17
37757;PMS7003;23599;50.304;18.928;2022-09-09T01:14:32;21;19;15
37757;PMS7003;23599;50.304;18.928;2022-09-09T01:14:43;26;24;17
37757;PMS7003;23599;50.304;18.928;2022-09-09T01:15:40;24;21;15
37757;PMS7003;23599;50.304;18.928;2022-09-09T01:16:01;25;22;15
37757;PMS7003;23599;50.304;18.928;2022-09-09T01:16:20;22;20;15
37757;PMS7003;23599;50.304;18.928;2022-09-09T01:16:25;22;20;15
37757;PMS7003;23599;50.304;18.928;2022-09-09T01:16:42;25;23;17
37757;PMS7003;23599;50.304;18.928;2022-09-09T01:16:58;25;22;16
37757;PMS7003;23599;50.304;18.928;2022-09-09T01:17:31;20;19;15
37757;PMS7003;23599;50.304;18.928;2022-09-09T01:18:04;19;19;15
37757;PMS7003;23599;50.304;18.928;2022-09-09T01:18:17;21;20;15
37757;PMS7003;23599;50.304;18.928;2022-09-09T01:18:39;22;21;16
37757;PMS7003;23599;50.304;18.928;2022-09-09T01:18:56;23;22;16
37757;PMS7003;23599;50.304;18.928;2022-09-09T01:19:14;22;21;15
37757;PMS7003;23599;50.304;18.928;2022-09-09T01:19:40;25;22;16
37757;PMS7003;23599;50.304;18.928;2022-09-09T01:20:08;26;22;17
37757;PMS7003;23599;50.304;18.928;2022-09-09T01:20:49;23;22;16
37757;PMS7003;23599;50.304;18.928;2022-09-09T01:22:33;23;22;16
37757;PMS7003;23599;50.304;18.928;2022-09-09T01:23:19;25;22;17
37757;PMS7003;23599;50.304;18.928;2022-09-09T01:26:08;24;22;16
37757;PMS7003;23599;50.304;18.928;2022-09-09T01:26:35;10;9;6
37757;PMS7003;23599;50.304;18.928;2022-09-09T01:26:52;14;14;10
37757;PMS7003;23599;50.304;18.928;2022-09-09T01:27:09;24;22;16
37757;PMS7003;23599;50.304;18.928;2022-09-09T01:27:25;25;22;16
37757;PMS7003;23599;50.304;18.928;2022-09-09T01:27:27;25;22;16
37757;PMS7003;23599;50.304;18.928;2022-09-09T01:27:40;23;22;16
37757;PMS7003;23599;50.304;18.928;2022-09-09T01:27:57;25;23;18
37757;PMS7003;23599;50.304;18.928;2022-09-09T01:28:16;25;23;17
37757;PMS7003;23599;50.304;18.928;2022-09-09T01:28:34;27;24;17
37757;PMS7003;23599;50.304;18.928;2022-09-09T01:28:49;23;22;17
37757;PMS7003;23599;50.304;18.928;2022-09-09T01:29:07;25;23;17
37757;PMS7003;23599;50.304;18.928;2022-09-09T01:29:22;26;23;19
37757;PMS7003;23599;50.304;18.928;2022-09-09T01:29:35;25;22;17
37757;PMS7003;23599;50.304;18.928;2022-09-09T01:29:49;26;24;18
37757;PMS7003;23599;50.304;18.928;2022-09-09T01:30:04;27;24;19
37757;PMS7003;23599;50.304;18.928;2022-09-09T01:30:22;24;23;17
37757;PMS7003;23599;50.304;18.928;2022-09-09T01:30:37;25;23;17
37757;PMS7003;23599;50.304;18.928;2022-09-09T01:30:41;25;23;17
37757;PMS7003;23599;50.304;18.928;2022-09-09T01:30:54;24;22;18
37757;PMS7003;23599;50.304;18.928;2022-09-09T01:31:09;27;24;18
37757;PMS7003;23599;50.304;18.928;2022-09-09T01:31:59;26;23;16
37757;PMS7003;23599;50.304;18.928;2022-09-09T01:32:41;24;22;16
37757;PMS7003;23599;50.304;18.928;2022-09-09T01:32:58;25;23;17
37757;PMS7003;23599;50.304;18.928;2022-09-09T01:33:16;23;21;17
37757;PMS7003;23599;50.304;18.928;2022-09-09T01:33:30;28;25;18
37757;PMS7003;23599;50.304;18.928;2022-09-09T01:33:43;25;23;16
37757;PMS7003;23599;50.304;18.928;2022-09-09T01:33:45;25;23;16
37757;PMS7003;23599;50.304;18.928;2022-09-09T01:33:58;29;25;17
37757;PMS7003;23599;50.304;18.928;2022-09-09T01:34:10;29;25;17
37757;PMS7003;23599;50.304;18.928;2022-09-09T01:34:25;24;22;15
37757;PMS7003;23599;50.304;18.928;2022-09-09T01:34:43;24;22;17
37757;PMS7003;23599;50.304;18.928;2022-09-09T01:35:00;26;24;17
37757;PMS7003;23599;50.304;18.928;2022-09-09T01:36:38;23;21;15
37757;PMS7003;23599;50.304;18.928;2022-09-09T01:36:51;24;22;17
37757;PMS7003;23599;50.304;18.928;2022-09-09T01:37:21;26;24;16
37757;PMS7003;23599;50.304;18.928;2022-09-09T01:37:34;25;23;17
37757;PMS7003;23599;50.304;18.928;2022-09-09T01:37:47;25;24;17
37757;PMS7003;23599;50.304;18.928;2022-09-09T01:38:00;27;24;18
37757;PMS7003;23599;50.304;18.928;2022-09-09T01:38:13;27;24;18
37757;PMS7003;23599;50.304;18.928;2022-09-09T01:38:46;26;24;17
37757;PMS7003;23599;50.304;18.928;2022-09-09T01:38:53;26;24;17
37757;PMS7003;23599;50.304;18.928;2022-09-09T01:39:07;24;23;16
37757;PMS7003;23599;50.304;18.928;2022-09-09T01:39:20;29;26;19
37757;PMS7003;23599;50.304;18.928;2022-09-09T01:39:34;27;24;17
37757;PMS7003;23599;50.304;18.928;2022-09-09T01:39:48;28;24;17
37757;PMS7003;23599;50.304;18.928;2022-09-09T01:40:01;29;25;17
37757;PMS7003;23599;50.304;18.928;2022-09-09T01:40:04;29;25;17
37757;PMS7003;23599;50.304;18.928;2022-09-09T01:40:17;25;23;17
37757;PMS7003;23599;50.304;18.928;2022-09-09T01:40:30;25;23;17
37757;PMS7003;23599;50.304;18.928;2022-09-09T01:40:44;22;21;16
37757;PMS7003;23599;50.304;18.928;2022-09-09T01:40:57;25;23;16
37757;PMS7003;23599;50.304;18.928;2022-09-09T01:41:10;23;23;16
37757;PMS7003;23599;50.304;18.928;2022-09-09T01:41:23;28;25;18
37757;PMS7003;23599;50.304;18.928;2022-09-09T01:41:36;27;23;16
37757;PMS7003;23599;50.304;18.928;2022-09-09T01:41:51;24;23;16
37757;PMS7003;23599;50.304;18.928;2022-09-09T01:42:05;22;21;15
37757;PMS7003;23599;50.304;18.928;2022-09-09T01:42:21;22;21;15
37757;PMS7003;23599;50.304;18.928;2022-09-09T01:42:34;23;22;17
37757;PMS7003;23599;50.304;18.928;2022-09-09T01:42:47;25;23;18
37757;PMS7003;23599;50.304;18.928;2022-09-09T01:43:00;23;22;16
37757;PMS7003;23599;50.304;18.928;2022-09-09T01:43:14;22;21;15
37757;PMS7003;23599;50.304;18.928;2022-09-09T01:43:16;22;21;15
37757;PMS7003;23599;50.304;18.928;2022-09-09T01:43:30;25;22;16
37757;PMS7003;23599;50.304;18.928;2022-09-09T01:43:43;26;24;17
37757;PMS7003;23599;50.304;18.928;2022-09-09T01:43:56;25;22;16
37757;PMS7003;23599;50.304;18.928;2022-09-09T01:44:09;26;24;17
37757;PMS7003;23599;50.304;18.928;2022-09-09T01:44:23;24;22;16
37757;PMS7003;23599;50.304;18.928;2022-09-09T01:44:38;27;23;16
37757;PMS7003;23599;50.304;18.928;2022-09-09T01:44:51;25;23;16
37757;PMS7003;23599;50.304;18.928;2022-09-09T01:45:07;23;22;16
37757;PMS7003;23599;50.304;18.928;2022-09-09T01:45:20;27;24;17
37757;PMS7003;23599;50.304;18.928;2022-09-09T01:45:34;24;23;17
37757;PMS7003;23599;50.304;18.928;2022-09-09T01:45:48;27;25;17
37757;PMS7003;23599;50.304;18.928;2022-09-09T01:46:06;25;24;16
37757;PMS7003;23599;50.304;18.928;2022-09-09T01:46:21;24;23;16
37757;PMS7003;23599;50.304;18.928;2022-09-09T01:46:23;24;23;16
37757;PMS7003;23599;50.304;18.928;2022-09-09T01:46:37;25;24;18
37757;PMS7003;23599;50.304;18.928;2022-09-09T01:46:42;25;24;18
37757;PMS7003;23599;50.304;18.928;2022-09-09T01:46:57;24;22;16
37757;PMS7003;23599;50.304;18.928;2022-09-09T01:47:10;28;24;17
37757;PMS7003;23599;50.304;18.928;2022-09-09T01:47:25;32;27;19
37757;PMS7003;23599;50.304;18.928;2022-09-09T01:47:38;27;24;17
37757;PMS7003;23599;50.304;18.928;2022-09-09T01:47:52;21;21;15
37757;PMS7003;23599;50.304;18.928;2022-09-09T01:48:05;23;22;16
37757;PMS7003;23599;50.304;18.928;2022-09-09T01:48:18;25;24;17
37757;PMS7003;23599;50.304;18.928;2022-09-09T01:48:33;26;24;17
37757;PMS7003;23599;50.304;18.928;2022-09-09T01:48:46;26;23;17
37757;PMS7003;23599;50.304;18.928;2022-09-09T01:48:59;23;22;17
37757;PMS7003;23599;50.304;18.928;2022-09-09T01:49:16;27;25;18
37757;PMS7003;23599;50.304;18.928;2022-09-09T01:49:30;23;22;16
37757;PMS7003;23599;50.304;18.928;2022-09-09T01:49:33;23;22;16
37757;PMS7003;23599;50.304;18.928;2022-09-09T01:49:46;26;23;16
37757;PMS7003;23599;50.304;18.928;2022-09-09T01:49:59;25;23;17
37757;PMS7003;23599;50.304;18.928;2022-09-09T01:50:15;25;23;17
37757;PMS7003;23599;50.304;18.928;2022-09-09T01:50:29;24;23;17
37757;PMS7003;23599;50.304;18.928;2022-09-09T01:50:42;23;22;16
37757;PMS7003;23599;50.304;18.928;2022-09-09T01:50:56;28;24;17
37757;PMS7003;23599;50.304;18.928;2022-09-09T01:51:09;25;23;16
37757;PMS7003;23599;50.304;18.928;2022-09-09T01:51:25;23;22;17
37757;PMS7003;23599;50.304;18.928;2022-09-09T01:51:38;27;25;19
37757;PMS7003;23599;50.304;18.928;2022-09-09T01:51:54;26;24;18
37757;PMS7003;23599;50.304;18.928;2022-09-09T01:52:08;27;24;17
37757;PMS7003;23599;50.304;18.928;2022-09-09T01:52:21;26;24;17
37757;PMS7003;23599;50.304;18.928;2022-09-09T01:52:36;25;22;17
37757;PMS7003;23599;50.304;18.928;2022-09-09T01:52:37;25;22;17
37757;PMS7003;23599;50.304;18.928;2022-09-09T01:52:52;24;22;17
37757;PMS7003;23599;50.304;18.928;2022-09-09T01:53:08;24;22;16
37757;PMS7003;23599;50.304;18.928;2022-09-09T01:53:23;24;22;16
37757;PMS7003;23599;50.304;18.928;2022-09-09T01:53:36;24;22;17
37757;PMS7003;23599;50.304;18.928;2022-09-09T01:53:53;27;24;18
37757;PMS7003;23599;50.304;18.928;2022-09-09T01:54:07;28;25;18
37757;PMS7003;23599;50.304;18.928;2022-09-09T01:54:21;27;23;17
37757;PMS7003;23599;50.304;18.928;2022-09-09T01:54:38;25;23;17
37757;PMS7003;23599;50.304;18.928;2022-09-09T01:54:51;24;23;17
37757;PMS7003;23599;50.304;18.928;2022-09-09T01:55:05;26;23;17
37757;PMS7003;23599;50.304;18.928;2022-09-09T01:55:20;27;24;18
37757;PMS7003;23599;50.304;18.928;2022-09-09T01:55:47;25;24;17
37757;PMS7003;23599;50.304;18.928;2022-09-09T01:57:43;25;23;16
37757;PMS7003;23599;50.304;18.928;2022-09-09T01:58:07;24;22;16
37757;PMS7003;23599;50.304;18.928;2022-09-09T01:58:57;23;22;16
37757;PMS7003;23599;50.304;18.928;2022-09-09T02:00:24;24;23;17
37757;PMS7003;23599;50.304;18.928;2022-09-09T02:00:41;25;23;17
37757;PMS7003;23599;50.304;18.928;2022-09-09T02:01:21;25;23;17
37757;PMS7003;23599;50.304;18.928;2022-09-09T02:02:03;27;24;18
37757;PMS7003;23599;50.304;18.928;2022-09-09T02:02:46;24;23;17
37757;PMS7003;23599;50.304;18.928;2022-09-09T02:03:05;24;23;17
37757;PMS7003;23599;50.304;18.928;2022-09-09T02:03:25;24;23;18
37757;PMS7003;23599;50.304;18.928;2022-09-09T02:03:42;24;23;16
37757;PMS7003;23599;50.304;18.928;2022-09-09T02:04:03;24;23;17
37757;PMS7003;23599;50.304;18.928;2022-09-09T02:04:50;23;22;17
37757;PMS7003;23599;50.304;18.928;2022-09-09T02:05:52;24;22;15
37757;PMS7003;23599;50.304;18.928;2022-09-09T02:06:34;24;22;16
37757;PMS7003;23599;50.304;18.928;2022-09-09T02:06:50;26;24;16
37757;PMS7003;23599;50.304;18.928;2022-09-09T02:07:28;27;25;18
37757;PMS7003;23599;50.304;18.928;2022-09-09T02:07:39;27;24;17
37757;PMS7003;23599;50.304;18.928;2022-09-09T02:08:11;26;24;17
37757;PMS7003;23599;50.304;18.928;2022-09-09T02:08:26;25;22;17
37757;PMS7003;23599;50.304;18.928;2022-09-09T02:08:49;24;22;15
37757;PMS7003;23599;50.304;18.928;2022-09-09T02:09:05;24;23;16
37757;PMS7003;23599;50.304;18.928;2022-09-09T02:09:23;22;21;16
37757;PMS7003;23599;50.304;18.928;2022-09-09T02:09:38;22;21;16
37757;PMS7003;23599;50.304;18.928;2022-09-09T02:09:47;22;21;16
37757;PMS7003;23599;50.304;18.928;2022-09-09T02:10:32;22;21;16
37757;PMS7003;23599;50.304;18.928;2022-09-09T02:11:17;25;23;16
37757;PMS7003;23599;50.304;18.928;2022-09-09T02:11:34;25;23;16
37757;PMS7003;23599;50.304;18.928;2022-09-09T02:11:47;26;23;17
37757;PMS7003;23599;50.304;18.928;2022-09-09T02:12:05;25;23;17
37757;PMS7003;23599;50.304;18.928;2022-09-09T02:12:24;28;25;18
37757;PMS7003;23599;50.304;18.928;2022-09-09T02:12:41;25;23;17
37757;PMS7003;23599;50.304;18.928;2022-09-09T02:13:15;26;24;18
37757;PMS7003;23599;50.304;18.928;2022-09-09T02:13:17;26;24;18
37757;PMS7003;23599;50.304;18.928;2022-09-09T02:13:32;23;22;17
37757;PMS7003;23599;50.304;18.928;2022-09-09T02:13:49;24;23;17
37757;PMS7003;23599;50.304;18.928;2022-09-09T02:14:15;28;25;19
37757;PMS7003;23599;50.304;18.928;2022-09-09T02:14:30;25;23;17
37757;PMS7003;23599;50.304;18.928;2022-09-09T02:14:52;25;24;17
37757;PMS7003;23599;50.304;18.928;2022-09-09T02:15:07;25;24;17
37757;PMS7003;23599;50.304;18.928;2022-09-09T02:16:12;23;21;16
37757;PMS7003;23599;50.304;18.928;2022-09-09T02:16:37;22;21;16
37757;PMS7003;23599;50.304;18.928;2022-09-09T02:16:44;22;21;16
37757;PMS7003;23599;50.304;18.928;2022-09-09T02:17:08;26;24;17
37757;PMS7003;23599;50.304;18.928;2022-09-09T02:17:25;25;23;17
37757;PMS7003;23599;50.304;18.928;2022-09-09T02:17:45;23;22;17
37757;PMS7003;23599;50.304;18.928;2022-09-09T02:18:02;22;22;16
37757;PMS7003;23599;50.304;18.928;2022-09-09T02:19:38;20;20;14
37757;PMS7003;23599;50.304;18.928;2022-09-09T02:19:59;25;24;17
37757;PMS7003;23599;50.304;18.928;2022-09-09T02:20:12;25;24;17
37757;PMS7003;23599;50.304;18.928;2022-09-09T02:20:26;22;22;16
37757;PMS7003;23599;50.304;18.928;2022-09-09T02:20:45;25;23;17
37757;PMS7003;23599;50.304;18.928;2022-09-09T02:21:00;25;22;17
37757;PMS7003;23599;50.304;18.928;2022-09-09T02:21:07;25;22;17
37757;PMS7003;23599;50.304;18.928;2022-09-09T02:21:23;23;21;16
37757;PMS7003;23599;50.304;18.928;2022-09-09T02:22:00;26;25;18
37757;PMS7003;23599;50.304;18.928;2022-09-09T02:22:17;23;22;16
37757;PMS7003;23599;50.304;18.928;2022-09-09T02:22:34;24;23;17
37757;PMS7003;23599;50.304;18.928;2022-09-09T02:22:51;24;23;17
37757;PMS7003;23599;50.304;18.928;2022-09-09T02:23:06;25;23;17
37757;PMS7003;23599;50.304;18.928;2022-09-09T02:23:22;27;24;17
37757;PMS7003;23599;50.304;18.928;2022-09-09T02:23:24;27;24;17
37757;PMS7003;23599;50.304;18.928;2022-09-09T02:23:38;24;23;17
37757;PMS7003;23599;50.304;18.928;2022-09-09T02:23:56;24;22;17
37757;PMS7003;23599;50.304;18.928;2022-09-09T02:24:16;23;22;17
37757;PMS7003;23599;50.304;18.928;2022-09-09T02:24:33;25;23;18
37757;PMS7003;23599;50.304;18.928;2022-09-09T02:24:49;25;23;17
37757;PMS7003;23599;50.304;18.928;2022-09-09T02:25:08;27;24;17
37757;PMS7003;23599;50.304;18.928;2022-09-09T02:25:25;29;25;18
37757;PMS7003;23599;50.304;18.928;2022-09-09T02:25:42;25;23;17
37757;PMS7003;23599;50.304;18.928;2022-09-09T02:25:59;25;22;15
37757;PMS7003;23599;50.304;18.928;2022-09-09T02:26:17;28;25;18
37757;PMS7003;23599;50.304;18.928;2022-09-09T02:26:36;24;23;18
37757;PMS7003;23599;50.304;18.928;2022-09-09T02:26:42;24;23;18
37757;PMS7003;23599;50.304;18.928;2022-09-09T02:26:51;24;23;18
37757;PMS7003;23599;50.304;18.928;2022-09-09T02:26:59;24;23;18
37757;PMS7003;23599;50.304;18.928;2022-09-09T02:27:18;26;24;17
37757;PMS7003;23599;50.304;18.928;2022-09-09T02:27:33;28;26;18
37757;PMS7003;23599;50.304;18.928;2022-09-09T02:27:47;26;24;18
37757;PMS7003;23599;50.304;18.928;2022-09-09T02:28:04;25;23;17
37757;PMS7003;23599;50.304;18.928;2022-09-09T02:28:22;23;22;16
37757;PMS7003;23599;50.304;18.928;2022-09-09T02:28:39;24;21;16
37757;PMS7003;23599;50.304;18.928;2022-09-09T02:28:55;24;23;17
37757;PMS7003;23599;50.304;18.928;2022-09-09T02:29:16;27;24;17
37757;PMS7003;23599;50.304;18.928;2022-09-09T02:29:36;25;23;17
37757;PMS7003;23599;50.304;18.928;2022-09-09T02:29:53;23;22;17
37757;PMS7003;23599;50.304;18.928;2022-09-09T02:29:58;23;22;17
37757;PMS7003;23599;50.304;18.928;2022-09-09T02:30:14;24;23;17
37757;PMS7003;23599;50.304;18.928;2022-09-09T02:30:19;24;23;17
37757;PMS7003;23599;50.304;18.928;2022-09-09T02:30:34;23;22;16
37757;PMS7003;23599;50.304;18.928;2022-09-09T02:30:50;22;22;16
37757;PMS7003;23599;50.304;18.928;2022-09-09T02:31:07;21;21;16
37757;PMS7003;23599;50.304;18.928;2022-09-09T02:31:21;18;18;16
37757;PMS7003;23599;50.304;18.928;2022-09-09T02:31:38;23;22;17
37757;PMS7003;23599;50.304;18.928;2022-09-09T02:31:54;28;24;18
37757;PMS7003;23599;50.304;18.928;2022-09-09T02:32:17;24;22;16
37757;PMS7003;23599;50.304;18.928;2022-09-09T02:32:36;23;22;17
37757;PMS7003;23599;50.304;18.928;2022-09-09T02:32:53;23;22;16
37757;PMS7003;23599;50.304;18.928;2022-09-09T02:33:09;24;23;16
37757;PMS7003;23599;50.304;18.928;2022-09-09T02:33:13;24;23;16
37757;PMS7003;23599;50.304;18.928;2022-09-09T02:33:29;24;22;16
37757;PMS7003;23599;50.304;18.928;2022-09-09T02:33:52;24;23;17
37757;PMS7003;23599;50.304;18.928;2022-09-09T02:34:09;24;22;16
37757;PMS7003;23599;50.304;18.928;2022-09-09T02:34:26;20;20;15
37757;PMS7003;23599;50.304;18.928;2022-09-09T02:34:51;25;23;17
37757;PMS7003;23599;50.304;18.928;2022-09-09T02:35:10;25;23;17
37757;PMS7003;23599;50.304;18.928;2022-09-09T02:35:27;26;23;17
37757;PMS7003;23599;50.304;18.928;2022-09-09T02:35:45;23;22;17